Time;durP1;ratioP1;P1;durP2;ratioP2;P2;SDS_P1;SDS_P2;PMS_P1;PMS_P2;Temp;Humidity;BMP_temperature;BMP_pressure;BME280_temperature;BME280_humidity;BME280_pressure;Samples;Min_cycle;Max_cycle;Signal;HPM_P1;HPM_P2
2022/12/20 03:53:47;;;;;;;35.47;31.87;;;3.90;99.90;;;;;;6109301;23;1050071;-77
2022/12/20 03:56:14;;;;;;;36.47;32.90;;;3.90;99.90;;;;;;6211220;23;20180;-77
2022/12/20 03:58:41;;;;;;;36.50;32.67;;;3.90;99.90;;;;;;6211218;23;20477;-77
2022/12/20 04:01:17;;;;;;;34.20;30.70;;;4.00;99.90;;;;;;6212235;23;20718;-77
2022/12/20 04:03:44;;;;;;;34.40;30.77;;;4.00;99.90;;;;;;6212721;23;20411;-76
2022/12/20 04:06:11;;;;;;;32.53;29.40;;;4.10;99.90;;;;;;6212063;23;20425;-77
2022/12/20 04:08:38;;;;;;;34.40;31.20;;;4.10;99.90;;;;;;6212226;23;20401;-77
2022/12/20 04:11:18;;;;;;;39.03;35.33;;;4.10;99.90;;;;;;6212824;23;20443;-77
2022/12/20 04:13:47;;;;;;;38.30;34.37;;;4.10;99.90;;;;;;6212513;23;20400;-77
2022/12/20 04:16:15;;;;;;;32.90;29.50;;;4.10;99.90;;;;;;6212446;23;20400;-77
2022/12/20 04:18:42;;;;;;;31.70;28.50;;;4.10;99.90;;;;;;6212060;23;20921;-77
2022/12/20 04:21:10;;;;;;;37.73;34.00;;;4.10;99.90;;;;;;6212475;23;20872;-74
2022/12/20 04:23:38;;;;;;;36.90;32.50;;;4.10;99.90;;;;;;6212675;23;20426;-77
2022/12/20 04:26:08;;;;;;;34.27;30.97;;;4.10;99.90;;;;;;6212871;23;20441;-75
2022/12/20 04:28:35;;;;;;;35.77;32.07;;;4.10;99.90;;;;;;6212384;23;20408;-76
2022/12/20 04:31:03;;;;;;;36.17;31.90;;;4.10;99.90;;;;;;6212149;23;20759;-76
2022/12/20 04:33:29;;;;;;;29.43;26.40;;;4.10;99.90;;;;;;6212355;23;20416;-76
2022/12/20 04:35:56;;;;;;;29.83;27.13;;;4.00;99.90;;;;;;6212497;23;20409;-76
2022/12/20 04:38:24;;;;;;;31.40;28.40;;;3.90;99.90;;;;;;6212148;23;20412;-76
2022/12/20 04:40:51;;;;;;;34.70;31.10;;;3.90;99.90;;;;;;6212641;23;20407;-77
2022/12/20 04:43:19;;;;;;;32.43;29.07;;;4.00;99.90;;;;;;6213086;23;20412;-76
2022/12/20 04:45:48;;;;;;;33.93;30.50;;;4.00;99.90;;;;;;6212797;23;20417;-75
2022/12/20 04:48:15;;;;;;;28.40;25.80;;;4.00;99.90;;;;;;6212821;23;20413;-76
2022/12/20 04:50:42;;;;;;;36.23;29.20;;;4.00;99.90;;;;;;6212345;23;20438;-75
2022/12/20 04:55:55;;;;;;;30.87;28.07;;;4.00;99.90;;;;;;6212165;23;20403;-75
2022/12/20 04:58:23;;;;;;;34.07;30.80;;;4.00;99.90;;;;;;6212050;23;20436;-76
2022/12/20 05:00:51;;;;;;;36.67;33.07;;;4.00;99.90;;;;;;6212349;23;20405;-76
2022/12/20 05:03:18;;;;;;;34.77;31.33;;;4.00;99.90;;;;;;6212687;23;20459;-76
2022/12/20 05:05:45;;;;;;;34.30;30.60;;;4.00;99.90;;;;;;6212759;23;20743;-76
2022/12/20 05:08:12;;;;;;;35.03;31.50;;;4.00;99.90;;;;;;6212427;23;20430;-76
2022/12/20 05:10:39;;;;;;;34.57;31.07;;;4.10;99.90;;;;;;6211566;23;20443;-76
2022/12/20 05:13:06;;;;;;;33.53;29.90;;;4.10;99.90;;;;;;6212666;23;20412;-77
2022/12/20 05:15:34;;;;;;;37.03;31.00;;;4.10;99.90;;;;;;6212532;23;20408;-76
2022/12/20 05:18:01;;;;;;;37.87;33.97;;;4.10;99.90;;;;;;6209880;23;20418;-76
2022/12/20 05:20:28;;;;;;;34.53;31.40;;;4.10;99.90;;;;;;6211798;23;20400;-75
2022/12/20 05:28:27;;;;;;;33.97;30.67;;;4.10;99.90;;;;;;6210185;23;20400;-76
2022/12/20 05:30:55;;;;;;;35.67;32.03;;;4.10;99.90;;;;;;6209652;23;20479;-75
2022/12/20 05:33:22;;;;;;;34.57;31.07;;;4.20;99.90;;;;;;6209660;23;20721;-76
2022/12/20 05:35:49;;;;;;;38.20;34.50;;;4.20;99.90;;;;;;6209676;23;20551;-76
2022/12/20 05:38:15;;;;;;;34.00;30.60;;;4.20;99.90;;;;;;6209979;23;20472;-75
2022/12/20 05:40:43;;;;;;;34.63;31.27;;;4.20;99.90;;;;;;6209245;23;20411;-76
2022/12/20 05:43:10;;;;;;;35.27;31.77;;;4.20;99.90;;;;;;6209123;23;20440;-76
2022/12/20 05:45:37;;;;;;;33.70;30.53;;;4.10;99.90;;;;;;6209898;23;20459;-75
2022/12/20 05:48:05;;;;;;;33.13;29.67;;;4.10;99.90;;;;;;6209690;23;20413;-76
2022/12/20 05:50:32;;;;;;;33.60;30.77;;;4.10;99.90;;;;;;6209149;23;20884;-76
2022/12/20 05:52:59;;;;;;;35.10;30.80;;;4.10;99.90;;;;;;6208750;23;20454;-76
2022/12/20 05:55:25;;;;;;;34.80;31.40;;;4.10;99.90;;;;;;6209312;23;20397;-76
2022/12/20 05:57:52;;;;;;;34.47;31.13;;;4.20;99.90;;;;;;6209286;23;20408;-76
2022/12/20 06:00:19;;;;;;;36.00;32.60;;;4.20;99.90;;;;;;6208868;23;20896;-77
2022/12/20 06:02:46;;;;;;;34.30;30.80;;;4.20;99.90;;;;;;6208291;23;20413;-77
2022/12/20 06:05:15;;;;;;;34.00;30.90;;;4.20;99.90;;;;;;6209326;23;20424;-76
2022/12/20 06:07:42;;;;;;;33.10;29.97;;;4.20;99.90;;;;;;6209173;23;20413;-76
2022/12/20 06:10:10;;;;;;;32.03;28.83;;;4.30;99.90;;;;;;6209080;23;20411;-76
2022/12/20 06:12:37;;;;;;;33.43;29.93;;;4.20;99.90;;;;;;6209331;23;20408;-76
2022/12/20 06:15:05;;;;;;;35.20;32.00;;;4.20;99.90;;;;;;6209935;23;20599;-79
2022/12/20 06:17:32;;;;;;;40.33;36.30;;;4.20;99.90;;;;;;6210708;23;20507;-74
2022/12/20 06:19:58;;;;;;;35.77;31.97;;;4.20;99.90;;;;;;6209787;23;20927;-74
2022/12/20 06:22:27;;;;;;;34.57;31.47;;;4.20;99.90;;;;;;6209728;23;20404;-74
2022/12/20 06:24:54;;;;;;;36.50;32.77;;;4.20;99.90;;;;;;6209794;23;20405;-74
2022/12/20 06:27:21;;;;;;;39.27;35.10;;;4.30;99.90;;;;;;6210247;23;20405;-73
2022/12/20 06:29:50;;;;;;;34.00;30.70;;;4.30;99.90;;;;;;6210173;23;20471;-75
2022/12/20 06:32:17;;;;;;;35.33;29.80;;;4.30;99.90;;;;;;6210357;23;20527;-73
2022/12/20 06:34:44;;;;;;;32.43;29.53;;;4.30;99.90;;;;;;6210221;23;20409;-72
2022/12/20 06:37:11;;;;;;;35.90;32.10;;;4.30;99.90;;;;;;6210014;23;20476;-73
2022/12/20 06:39:39;;;;;;;34.20;30.70;;;4.30;99.90;;;;;;6209853;23;20420;-74
2022/12/20 06:42:06;;;;;;;33.90;29.80;;;4.30;99.90;;;;;;6209718;23;20516;-75
2022/12/20 06:44:33;;;;;;;35.47;31.93;;;4.30;99.90;;;;;;6209764;23;20412;-75
2022/12/20 06:47:00;;;;;;;34.20;30.80;;;4.30;99.90;;;;;;6210358;23;20413;-73
2022/12/20 06:49:26;;;;;;;34.60;30.57;;;4.30;99.90;;;;;;6209874;23;20405;-73
2022/12/20 06:51:53;;;;;;;34.40;30.97;;;4.30;99.90;;;;;;6209124;23;20947;-75
2022/12/20 06:54:20;;;;;;;35.20;31.60;;;4.40;99.90;;;;;;6209738;23;20437;-73
2022/12/20 06:56:48;;;;;;;36.13;32.17;;;4.40;99.90;;;;;;6210117;23;20409;-73
2022/12/20 06:59:15;;;;;;;35.10;31.90;;;4.40;99.90;;;;;;6210063;23;20416;-74
2022/12/20 07:01:43;;;;;;;31.53;28.57;;;4.40;99.90;;;;;;6209634;23;20413;-74
2022/12/20 07:04:10;;;;;;;35.20;31.67;;;4.40;99.90;;;;;;6210212;23;20787;-74
2022/12/20 07:06:37;;;;;;;33.73;30.57;;;4.30;99.90;;;;;;6210446;23;20427;-75
2022/12/20 07:09:04;;;;;;;37.40;33.00;;;4.30;99.90;;;;;;6211008;23;20412;-75
2022/12/20 07:11:30;;;;;;;35.53;31.93;;;4.40;99.90;;;;;;6210821;23;20483;-76
2022/12/20 07:13:58;;;;;;;35.37;32.23;;;4.40;99.90;;;;;;6211405;23;20416;-76
2022/12/20 07:16:25;;;;;;;33.00;29.80;;;4.40;99.90;;;;;;6210660;23;20415;-75
2022/12/20 07:18:53;;;;;;;33.00;29.53;;;4.40;99.90;;;;;;6210965;23;20419;-74
2022/12/20 07:21:20;;;;;;;35.27;31.60;;;4.40;99.90;;;;;;6210466;23;20404;-75
2022/12/20 07:23:48;;;;;;;35.77;32.10;;;4.40;99.90;;;;;;6210389;23;20415;-75
2022/12/20 07:26:15;;;;;;;37.00;33.20;;;4.50;99.90;;;;;;6210254;23;20419;-76
2022/12/20 07:28:43;;;;;;;33.17;29.87;;;4.50;99.90;;;;;;6210144;23;21102;-75
2022/12/20 07:31:11;;;;;;;33.13;29.60;;;4.40;99.90;;;;;;6210285;23;20444;-76
2022/12/20 07:33:38;;;;;;;33.63;29.20;;;4.40;99.90;;;;;;6210414;23;20404;-75
2022/12/20 07:36:07;;;;;;;34.60;31.30;;;4.40;99.90;;;;;;6212390;23;20419;-76
2022/12/20 07:38:34;;;;;;;37.30;33.53;;;4.30;99.90;;;;;;6212312;23;20926;-75
2022/12/20 07:41:01;;;;;;;33.20;29.80;;;4.30;99.90;;;;;;6212597;23;20408;-74
2022/12/20 07:43:28;;;;;;;34.80;31.30;;;4.30;99.90;;;;;;6212438;23;20415;-74
2022/12/20 07:45:55;;;;;;;32.93;29.80;;;4.40;99.90;;;;;;6212424;23;20444;-75
2022/12/20 07:48:24;;;;;;;38.00;34.03;;;4.40;99.90;;;;;;6212793;23;20415;-72
2022/12/20 07:50:53;;;;;;;36.50;32.77;;;4.40;99.90;;;;;;6212505;23;20439;-78
2022/12/20 07:53:20;;;;;;;38.37;30.47;;;4.40;99.90;;;;;;6205060;23;20844;-74
2022/12/20 07:55:49;;;;;;;33.70;30.43;;;4.40;99.90;;;;;;6211012;23;20408;-76
2022/12/20 07:58:17;;;;;;;32.50;29.03;;;4.50;99.90;;;;;;6211556;23;20419;-76
2022/12/20 08:00:44;;;;;;;32.97;29.53;;;4.50;99.90;;;;;;6211537;23;20914;-75
2022/12/20 08:03:15;;;;;;;32.80;29.40;;;4.50;99.90;;;;;;6210733;23;20405;-75
2022/12/20 08:05:47;;;;;;;31.63;28.23;;;4.50;99.90;;;;;;6211727;23;20392;-77
2022/12/20 08:08:16;;;;;;;29.97;27.23;;;4.60;99.90;;;;;;6211400;23;20393;-80
2022/12/20 08:10:43;;;;;;;33.40;30.10;;;4.60;99.90;;;;;;6211617;23;20473;-79
2022/12/20 08:13:10;;;;;;;32.10;29.00;;;4.60;99.90;;;;;;6211910;23;20405;-79
2022/12/20 08:15:37;;;;;;;36.37;31.97;;;4.80;99.90;;;;;;6212227;23;20793;-78
2022/12/20 08:18:05;;;;;;;31.23;28.63;;;4.90;99.90;;;;;;6212324;23;20413;-77
2022/12/20 08:20:31;;;;;;;33.10;29.70;;;4.90;99.90;;;;;;6212063;23;20413;-78
2022/12/20 08:22:59;;;;;;;32.50;29.30;;;5.00;99.90;;;;;;6210892;23;20420;-75
2022/12/20 08:25:26;;;;;;;31.13;28.37;;;5.10;99.90;;;;;;6211558;23;20421;-75
2022/12/20 08:27:53;;;;;;;29.00;26.20;;;5.10;99.90;;;;;;6211895;23;20426;-75
2022/12/20 08:30:20;;;;;;;29.67;27.00;;;5.10;99.90;;;;;;6211745;23;20420;-75
2022/12/20 08:32:46;;;;;;;30.20;27.17;;;5.10;99.90;;;;;;6211232;23;20440;-76
2022/12/20 08:35:13;;;;;;;28.37;26.00;;;5.00;99.90;;;;;;6211732;23;20419;-74
2022/12/20 14:39:25;;;;;;;26.53;23.90;;;7.80;99.90;;;;;;6176521;23;20456;-75
2022/12/20 14:41:57;;;;;;;29.63;27.03;;;7.70;99.90;;;;;;6209749;23;20459;-75
2022/12/20 14:44:26;;;;;;;26.93;24.67;;;7.70;99.90;;;;;;6211372;23;20428;-75
2022/12/20 14:46:54;;;;;;;27.73;25.17;;;7.60;99.90;;;;;;6209411;23;20412;-75
2022/12/20 14:49:24;;;;;;;26.97;24.57;;;7.60;99.90;;;;;;6211733;23;20416;-74
2022/12/20 14:51:52;;;;;;;25.90;23.70;;;7.60;99.90;;;;;;6211657;23;20445;-75
2022/12/20 14:54:20;;;;;;;26.70;24.23;;;7.60;99.90;;;;;;6211675;23;20408;-75
2022/12/20 14:56:50;;;;;;;27.60;25.37;;;7.60;99.90;;;;;;6211130;23;20892;-75
2022/12/20 14:59:24;;;;;;;29.67;26.50;;;7.60;99.90;;;;;;6211456;23;20492;-75
2022/12/20 15:01:51;;;;;;;25.83;23.70;;;7.60;99.90;;;;;;6211677;23;20484;-75
2022/12/20 15:04:24;;;;;;;26.17;23.87;;;7.70;99.90;;;;;;6211904;23;20412;-73
2022/12/20 15:06:52;;;;;;;27.50;24.77;;;7.80;99.90;;;;;;6211318;23;20404;-74
2022/12/20 15:09:19;;;;;;;27.20;24.67;;;7.80;99.90;;;;;;6211568;23;20412;-74
2022/12/20 15:11:48;;;;;;;26.50;24.57;;;7.80;99.90;;;;;;6210807;23;20447;-76
2022/12/20 15:14:32;;;;;;;26.70;24.50;;;7.80;99.90;;;;;;6210525;23;20405;-75
2022/12/20 15:16:59;;;;;;;25.00;22.80;;;7.80;99.90;;;;;;6210616;23;20397;-75
2022/12/20 15:19:26;;;;;;;23.33;21.10;;;7.80;99.90;;;;;;6210836;23;20409;-74
2022/12/20 15:21:53;;;;;;;25.03;22.60;;;7.80;99.90;;;;;;6210236;23;20424;-76
2022/12/20 15:24:24;;;;;;;25.93;23.70;;;7.70;99.90;;;;;;6210954;23;20408;-76
2022/12/20 15:26:52;;;;;;;27.33;25.03;;;7.60;99.90;;;;;;6210795;23;20443;-77
2022/12/20 15:29:21;;;;;;;27.03;24.57;;;7.60;99.90;;;;;;6211434;23;20401;-75
2022/12/20 15:31:49;;;;;;;26.57;24.17;;;7.50;99.90;;;;;;6211397;23;20451;-75
2022/12/20 15:34:19;;;;;;;25.87;23.87;;;7.50;99.90;;;;;;6211403;23;20408;-74
2022/12/20 15:36:46;;;;;;;22.77;21.10;;;7.50;99.90;;;;;;6217134;23;20436;-74
2022/12/20 15:39:13;;;;;;;23.07;20.97;;;7.50;99.90;;;;;;6222977;23;20617;-75
2022/12/20 15:41:42;;;;;;;24.03;21.97;;;7.50;99.90;;;;;;6214617;23;20408;-74
2022/12/20 15:44:15;;;;;;;25.47;23.47;;;7.50;99.90;;;;;;6213926;23;20915;-74
2022/12/20 15:46:43;;;;;;;22.70;20.70;;;7.50;99.90;;;;;;6211652;23;20874;-75
2022/12/20 15:49:13;;;;;;;26.93;24.80;;;7.50;99.90;;;;;;6211001;23;20408;-74
2022/12/20 15:51:43;;;;;;;27.23;24.27;;;7.50;99.90;;;;;;6210746;23;20439;-75
2022/12/20 15:54:20;;;;;;;28.87;26.17;;;7.50;99.90;;;;;;6210743;23;20409;-74
2022/12/20 15:56:47;;;;;;;28.27;24.90;;;7.50;99.90;;;;;;6213012;23;20399;-75
2022/12/20 15:59:15;;;;;;;27.07;24.73;;;7.50;99.90;;;;;;6212978;23;20423;-73
2022/12/20 16:01:42;;;;;;;26.80;24.70;;;7.40;99.90;;;;;;6212759;23;20420;-74
2022/12/20 16:04:14;;;;;;;27.10;24.80;;;7.40;99.90;;;;;;6212911;23;20872;-74
2022/12/20 16:06:42;;;;;;;24.30;22.50;;;7.40;99.90;;;;;;6212763;23;20863;-74
2022/12/20 16:09:09;;;;;;;29.10;26.53;;;7.40;99.90;;;;;;6213197;23;20741;-75
2022/12/20 16:11:36;;;;;;;27.60;25.03;;;7.30;99.90;;;;;;6213184;23;20428;-74
2022/12/20 16:14:03;;;;;;;28.97;26.27;;;7.30;99.90;;;;;;6213521;23;20408;-74
2022/12/20 16:16:33;;;;;;;27.57;25.17;;;7.30;99.90;;;;;;6212948;23;20733;-74
2022/12/20 16:19:00;;;;;;;24.87;22.83;;;7.20;99.90;;;;;;6213182;23;20389;-75
2022/12/20 16:21:31;;;;;;;27.07;24.73;;;7.20;99.90;;;;;;6212890;23;20408;-74
2022/12/20 16:23:58;;;;;;;27.90;25.40;;;7.10;99.90;;;;;;6212661;23;20733;-75
2022/12/20 16:26:26;;;;;;;27.73;25.43;;;7.10;99.90;;;;;;6212362;23;20420;-75
2022/12/20 16:28:54;;;;;;;25.63;23.73;;;7.10;99.90;;;;;;6212794;23;20405;-75
2022/12/20 16:31:24;;;;;;;29.10;26.77;;;7.10;99.90;;;;;;6213148;23;20409;-75
2022/12/20 16:33:53;;;;;;;29.07;26.30;;;7.20;99.90;;;;;;6212576;23;20459;-75
2022/12/20 16:36:20;;;;;;;29.07;26.37;;;7.20;99.90;;;;;;6213101;23;20432;-75
2022/12/20 16:38:46;;;;;;;27.30;25.03;;;7.20;99.90;;;;;;6212504;23;20440;-75
2022/12/20 16:41:15;;;;;;;26.90;24.17;;;7.20;99.90;;;;;;6213565;23;20749;-75
2022/12/20 16:43:43;;;;;;;27.03;24.63;;;7.30;99.90;;;;;;6212591;23;20409;-73
2022/12/20 16:46:12;;;;;;;24.37;22.27;;;7.40;99.90;;;;;;6212558;23;20415;-74
2022/12/20 16:48:39;;;;;;;24.90;22.77;;;7.50;99.90;;;;;;6212247;23;20740;-74
2022/12/20 16:51:23;;;;;;;27.00;24.70;;;7.60;99.90;;;;;;6212640;23;20439;-74
2022/12/20 16:53:50;;;;;;;24.07;22.17;;;7.50;99.90;;;;;;6212597;23;20432;-74
2022/12/20 16:56:17;;;;;;;27.07;24.53;;;7.40;99.90;;;;;;6212502;23;20413;-75
2022/12/20 16:58:44;;;;;;;28.30;25.47;;;7.40;99.90;;;;;;6212203;23;20420;-76
2022/12/20 17:01:16;;;;;;;26.97;24.63;;;7.40;99.90;;;;;;6212171;23;20949;-74
2022/12/20 17:03:43;;;;;;;25.83;23.63;;;7.40;99.90;;;;;;6212082;23;20769;-75
2022/12/20 17:06:11;;;;;;;31.13;23.47;;;7.40;99.90;;;;;;6211446;23;20413;-74
2022/12/20 17:08:39;;;;;;;25.77;23.50;;;7.40;99.90;;;;;;6211716;23;20500;-74
2022/12/20 17:11:14;;;;;;;23.37;21.47;;;7.40;99.90;;;;;;6212321;23;20409;-75
2022/12/20 17:13:41;;;;;;;25.73;23.60;;;7.50;99.90;;;;;;6211492;23;20494;-74
2022/12/20 17:16:10;;;;;;;28.87;26.17;;;7.50;99.90;;;;;;6212383;23;20405;-74
2022/12/20 17:18:37;;;;;;;25.23;22.90;;;7.50;99.90;;;;;;6213373;23;20413;-75
2022/12/20 17:21:12;;;;;;;25.47;23.07;;;7.50;99.90;;;;;;6212675;23;20413;-76
2022/12/20 17:23:40;;;;;;;26.13;24.13;;;7.50;99.90;;;;;;6212059;23;20380;-75
2022/12/20 17:26:08;;;;;;;26.77;24.63;;;7.40;99.90;;;;;;6212300;23;20405;-74
2022/12/20 17:28:36;;;;;;;26.37;24.37;;;7.40;99.90;;;;;;6212206;23;20405;-74
2022/12/20 17:31:02;;;;;;;29.50;26.47;;;7.40;99.90;;;;;;6212622;23;20456;-74
2022/12/20 17:33:29;;;;;;;26.50;24.40;;;7.40;99.90;;;;;;6211593;23;20449;-74
2022/12/20 17:35:56;;;;;;;25.03;22.90;;;7.40;99.90;;;;;;6212361;23;20431;-74
2022/12/20 17:38:23;;;;;;;24.90;22.90;;;7.40;99.90;;;;;;6211853;23;20440;-74
2022/12/20 17:40:51;;;;;;;26.93;24.50;;;7.30;99.90;;;;;;6212187;23;20416;-74
2022/12/20 17:43:17;;;;;;;25.07;22.80;;;7.20;99.90;;;;;;6211937;23;20417;-76
2022/12/20 17:45:44;;;;;;;26.23;23.90;;;7.30;99.90;;;;;;6211243;23;20404;-75
2022/12/20 17:48:10;;;;;;;27.83;25.33;;;7.30;99.90;;;;;;6211155;23;21112;-75
2022/12/20 17:50:38;;;;;;;29.07;26.37;;;7.30;99.90;;;;;;6211699;23;20409;-76
2022/12/20 17:53:04;;;;;;;29.67;27.07;;;7.20;99.90;;;;;;6211674;23;20440;-74
2022/12/20 17:55:31;;;;;;;30.20;27.63;;;7.20;99.90;;;;;;6211705;23;20732;-75
2022/12/20 17:58:00;;;;;;;29.67;26.90;;;7.20;99.90;;;;;;6211469;23;20766;-74
2022/12/20 18:00:28;;;;;;;27.80;25.27;;;7.20;99.90;;;;;;6210828;23;20440;-75
2022/12/20 18:02:55;;;;;;;32.70;29.40;;;7.20;99.90;;;;;;6211240;23;20444;-75
2022/12/20 18:05:23;;;;;;;30.27;27.43;;;7.20;99.90;;;;;;6211789;23;20431;-73
2022/12/20 18:07:52;;;;;;;28.23;25.87;;;7.30;99.90;;;;;;6211753;23;20419;-73
2022/12/20 18:10:19;;;;;;;29.07;26.33;;;7.30;99.90;;;;;;6211709;23;20462;-74
2022/12/20 18:12:45;;;;;;;29.43;26.73;;;7.30;99.90;;;;;;6211679;23;20441;-76
2022/12/20 18:15:13;;;;;;;30.83;26.70;;;7.30;99.90;;;;;;6211099;23;20418;-76
2022/12/20 18:17:40;;;;;;;29.27;26.53;;;7.30;99.90;;;;;;6211329;23;20415;-74
2022/12/20 18:20:09;;;;;;;28.07;25.70;;;7.30;99.90;;;;;;6210994;23;20416;-75
2022/12/20 18:22:36;;;;;;;28.70;26.20;;;7.40;99.90;;;;;;6211174;23;20416;-74
2022/12/20 18:25:07;;;;;;;28.93;26.17;;;7.40;99.90;;;;;;6211772;23;20766;-74
2022/12/20 18:27:37;;;;;;;29.50;26.70;;;7.40;99.90;;;;;;6211435;23;20398;-75
2022/12/20 18:30:05;;;;;;;30.63;27.40;;;7.40;99.90;;;;;;6211526;23;20462;-75
2022/12/20 18:32:33;;;;;;;30.90;27.73;;;7.40;99.90;;;;;;6221977;23;20464;-74
2022/12/20 18:35:00;;;;;;;27.60;24.70;;;7.40;99.90;;;;;;6219085;23;20412;-74
2022/12/20 18:37:26;;;;;;;28.77;25.43;;;7.30;99.90;;;;;;6218602;23;20471;-73
2022/12/20 18:39:53;;;;;;;30.70;27.90;;;7.30;99.90;;;;;;6212267;23;20436;-73
2022/12/20 18:42:20;;;;;;;29.27;26.27;;;7.30;99.90;;;;;;6212762;23;20416;-74
2022/12/20 18:44:46;;;;;;;43.93;27.67;;;7.30;99.90;;;;;;6211534;23;20424;-74
2022/12/20 18:47:13;;;;;;;31.07;28.27;;;7.30;99.90;;;;;;6211173;23;20405;-74
2022/12/20 18:49:41;;;;;;;29.93;27.20;;;7.40;99.90;;;;;;6210947;23;20409;-74
2022/12/20 18:52:08;;;;;;;29.47;26.73;;;7.50;99.90;;;;;;6211211;23;20417;-74
2022/12/20 18:54:35;;;;;;;26.23;23.90;;;7.60;99.90;;;;;;6211347;23;20444;-74
2022/12/20 18:57:04;;;;;;;26.77;24.47;;;7.60;99.90;;;;;;6211379;23;20416;-75
2022/12/20 18:59:31;;;;;;;29.43;26.90;;;7.60;99.90;;;;;;6211370;23;20493;-74
2022/12/20 19:01:58;;;;;;;29.87;27.33;;;7.60;99.90;;;;;;6211301;23;20783;-75
2022/12/20 19:04:25;;;;;;;28.73;26.33;;;7.60;99.90;;;;;;6211087;23;20732;-73
2022/12/20 19:06:53;;;;;;;26.17;23.87;;;7.50;99.90;;;;;;6211159;23;20420;-74
2022/12/20 19:09:20;;;;;;;29.23;26.80;;;7.50;99.90;;;;;;6211658;23;20503;-74
2022/12/20 19:11:47;;;;;;;28.00;25.30;;;7.60;99.90;;;;;;6210999;23;20405;-76
2022/12/20 19:14:14;;;;;;;28.40;25.90;;;7.60;99.90;;;;;;6210515;23;20441;-73
2022/12/20 19:16:41;;;;;;;30.07;27.30;;;7.70;99.90;;;;;;6210561;23;20413;-74
2022/12/20 19:19:08;;;;;;;30.27;27.50;;;7.80;99.90;;;;;;6210819;23;20918;-74
2022/12/20 19:21:37;;;;;;;29.60;27.20;;;7.80;99.90;;;;;;6211042;23;20463;-74
2022/12/20 19:24:06;;;;;;;31.33;28.43;;;7.90;99.90;;;;;;6211139;23;20881;-75
2022/12/20 19:26:35;;;;;;;30.80;27.90;;;7.90;99.90;;;;;;6211557;23;20409;-74
2022/12/20 19:29:03;;;;;;;28.23;25.47;;;7.90;99.90;;;;;;6211518;23;20472;-73
2022/12/20 19:31:31;;;;;;;29.77;27.10;;;7.80;99.90;;;;;;6214057;23;20400;-74
2022/12/20 19:34:01;;;;;;;29.10;26.27;;;7.80;99.90;;;;;;6214286;23;20615;-74
2022/12/20 19:36:29;;;;;;;33.20;30.10;;;7.70;99.90;;;;;;6214230;23;20459;-74
2022/12/20 19:38:57;;;;;;;32.03;29.03;;;7.60;99.90;;;;;;6213895;23;20441;-75
2022/12/20 19:41:27;;;;;;;29.83;27.33;;;7.50;99.90;;;;;;6214234;23;20409;-75
2022/12/20 19:43:54;;;;;;;29.67;27.13;;;7.50;99.90;;;;;;6213965;23;20935;-73
2022/12/20 19:46:22;;;;;;;30.60;28.00;;;7.40;99.90;;;;;;6214510;23;20412;-73
2022/12/20 19:48:49;;;;;;;34.27;29.33;;;7.40;99.90;;;;;;6214247;23;20423;-73
2022/12/20 19:51:17;;;;;;;30.80;28.20;;;7.40;99.90;;;;;;6214704;23;20420;-74
2022/12/20 19:53:46;;;;;;;28.97;26.67;;;7.40;99.90;;;;;;6211380;23;20440;-73
2022/12/20 19:56:15;;;;;;;27.67;25.10;;;7.40;99.90;;;;;;6217468;23;20428;-72
2022/12/20 19:58:44;;;;;;;26.73;24.50;;;7.40;99.90;;;;;;6226095;23;20771;-72
2022/12/20 20:01:11;;;;;;;27.67;24.97;;;7.40;99.90;;;;;;6216089;23;20415;-74
2022/12/20 20:03:53;;;;;;;27.27;24.87;;;7.40;99.90;;;;;;6217922;23;20385;-79
2022/12/20 20:06:20;;;;;;;26.87;24.67;;;7.40;99.90;;;;;;6214419;23;20416;-74
2022/12/20 20:08:48;;;;;;;26.40;23.87;;;7.40;99.90;;;;;;6214071;23;20412;-74
2022/12/20 20:11:15;;;;;;;25.20;22.90;;;7.40;99.90;;;;;;6214351;23;20744;-74
2022/12/20 20:13:44;;;;;;;27.03;24.23;;;7.40;99.90;;;;;;6213905;23;20444;-74
2022/12/20 20:16:11;;;;;;;29.20;26.70;;;7.60;99.90;;;;;;6214278;23;20684;-74
2022/12/20 20:18:39;;;;;;;29.27;26.63;;;7.30;99.90;;;;;;6214504;23;20495;-74
2022/12/20 20:21:08;;;;;;;30.40;27.80;;;7.40;99.90;;;;;;6214578;23;20479;-75
2022/12/20 20:23:35;;;;;;;28.77;26.27;;;7.30;99.90;;;;;;6214495;23;20730;-74
2022/12/20 20:26:05;;;;;;;28.10;25.70;;;7.30;99.90;;;;;;6214397;23;21033;-75
2022/12/20 20:28:32;;;;;;;31.07;28.30;;;7.40;99.90;;;;;;6214330;23;20404;-75
2022/12/20 20:31:00;;;;;;;28.47;26.10;;;7.40;99.90;;;;;;6214058;23;20440;-75
2022/12/20 20:33:26;;;;;;;29.73;26.93;;;7.30;99.90;;;;;;6214094;23;20432;-76
2022/12/20 20:35:54;;;;;;;26.93;24.83;;;7.30;99.90;;;;;;6214314;23;20408;-75
2022/12/20 20:38:21;;;;;;;28.50;25.73;;;7.20;99.90;;;;;;6213856;23;20498;-74
2022/12/20 20:40:48;;;;;;;47.73;30.43;;;7.20;99.90;;;;;;6214153;23;20408;-75
2022/12/20 20:43:15;;;;;;;33.20;30.73;;;7.20;99.90;;;;;;6211749;23;20409;-75
2022/12/20 20:45:41;;;;;;;34.57;31.80;;;7.10;99.90;;;;;;6212371;23;20897;-75
2022/12/20 20:48:09;;;;;;;40.57;37.27;;;7.10;99.90;;;;;;6212491;23;20408;-75
2022/12/20 20:50:36;;;;;;;40.70;37.50;;;7.10;99.90;;;;;;6213057;23;20593;-76
2022/12/20 20:53:04;;;;;;;37.80;34.70;;;7.20;99.90;;;;;;6212718;23;20413;-76
2022/12/20 20:55:31;;;;;;;38.07;35.27;;;7.20;99.90;;;;;;6212574;23;20500;-75
2022/12/20 20:57:58;;;;;;;35.33;32.87;;;7.20;99.90;;;;;;6212377;23;20499;-75
2022/12/20 21:00:25;;;;;;;34.63;32.27;;;7.20;99.90;;;;;;6212351;23;20412;-74
2022/12/20 21:02:51;;;;;;;35.27;32.67;;;7.30;99.90;;;;;;6211859;23;20405;-75
2022/12/20 21:05:19;;;;;;;34.60;31.90;;;7.30;99.90;;;;;;6212505;23;20416;-73
2022/12/20 21:07:46;;;;;;;39.33;36.17;;;7.30;99.90;;;;;;6212058;23;20409;-79
2022/12/20 21:10:13;;;;;;;40.87;37.97;;;7.40;99.90;;;;;;6212038;23;20839;-76
2022/12/20 21:12:40;;;;;;;42.67;39.57;;;7.40;99.90;;;;;;6212546;23;20419;-75
2022/12/20 21:15:07;;;;;;;42.70;39.63;;;7.30;99.90;;;;;;6211816;23;20449;-75
2022/12/20 21:17:34;;;;;;;45.00;41.60;;;7.30;99.90;;;;;;6212505;23;20405;-75
2022/12/20 21:20:01;;;;;;;46.17;42.70;;;7.30;99.90;;;;;;6211952;23;20412;-75
2022/12/20 21:22:29;;;;;;;45.60;42.27;;;7.10;99.90;;;;;;6212139;23;20416;-76
2022/12/20 21:24:57;;;;;;;49.23;45.23;;;6.90;99.90;;;;;;6212349;23;20435;-77
2022/12/20 21:27:24;;;;;;;50.57;46.37;;;6.80;99.90;;;;;;6212162;23;20409;-76
2022/12/20 21:29:51;;;;;;;49.60;45.17;;;6.80;99.90;;;;;;6212230;23;20416;-76
2022/12/20 21:32:18;;;;;;;48.97;44.20;;;;;;;;;;6214215;23;20412;-77
2022/12/20 21:34:45;;;;;;;47.03;43.07;;;6.70;99.90;;;;;;6213469;23;20443;-79
2022/12/20 21:37:11;;;;;;;47.57;43.30;;;6.60;99.90;;;;;;6214060;23;20428;-77
2022/12/20 21:39:39;;;;;;;46.17;42.20;;;6.50;99.90;;;;;;6213724;23;20460;-79
2022/12/20 21:42:06;;;;;;;46.50;42.70;;;6.50;99.90;;;;;;6213657;23;20405;-80
2022/12/20 21:44:33;;;;;;;44.87;40.80;;;6.50;99.90;;;;;;6215066;23;20417;-81
2022/12/20 21:47:00;;;;;;;46.20;42.10;;;6.50;99.90;;;;;;6212983;23;20416;-80
2022/12/20 21:49:27;;;;;;;47.97;43.70;;;6.50;99.90;;;;;;6212218;23;20408;-79
2022/12/20 21:51:55;;;;;;;47.80;43.60;;;6.50;99.90;;;;;;6212573;23;20413;-79
2022/12/20 21:54:22;;;;;;;48.10;43.90;;;6.50;99.90;;;;;;6212666;23;20539;-80
2022/12/20 21:56:50;;;;;;;48.50;44.10;;;6.50;99.90;;;;;;6212573;23;20409;-77
2022/12/20 21:59:16;;;;;;;48.87;44.47;;;6.50;99.90;;;;;;6212254;23;20904;-77
2022/12/20 22:01:45;;;;;;;49.23;44.83;;;6.50;99.90;;;;;;6212535;23;20509;-77
2022/12/20 22:04:13;;;;;;;49.87;45.70;;;6.40;99.90;;;;;;6213072;23;20412;-76
2022/12/20 22:06:42;;;;;;;52.80;47.43;;;6.40;99.90;;;;;;6211983;23;20416;-75
2022/12/20 22:09:10;;;;;;;50.77;46.33;;;6.50;99.90;;;;;;6212138;23;20499;-76
2022/12/20 22:11:37;;;;;;;50.93;46.23;;;6.50;99.90;;;;;;6212190;23;20764;-75
2022/12/20 22:14:06;;;;;;;50.13;45.80;;;6.50;99.90;;;;;;6212357;23;20936;-75
2022/12/20 22:16:33;;;;;;;51.90;47.30;;;6.40;99.90;;;;;;6213128;23;20432;-76
2022/12/20 22:19:01;;;;;;;51.90;47.30;;;6.50;99.90;;;;;;6212092;23;20989;-75
2022/12/20 22:21:30;;;;;;;50.77;45.97;;;6.50;99.90;;;;;;6212160;23;20408;-76
2022/12/20 22:23:58;;;;;;;48.83;44.10;;;6.50;99.90;;;;;;6212389;23;20420;-75
2022/12/20 22:26:26;;;;;;;53.10;48.53;;;6.60;99.90;;;;;;6211442;23;20408;-76
2022/12/20 22:28:57;;;;;;;49.90;45.37;;;6.60;99.90;;;;;;6212093;23;20416;-76
2022/12/20 22:31:25;;;;;;;48.73;44.73;;;6.60;99.90;;;;;;6212111;23;20398;-76
2022/12/20 22:33:53;;;;;;;51.43;46.87;;;6.50;99.90;;;;;;6212061;23;20491;-76
2022/12/20 22:36:21;;;;;;;50.83;46.60;;;6.50;99.90;;;;;;6211899;23;20412;-75
2022/12/20 22:38:50;;;;;;;50.53;46.10;;;6.50;99.90;;;;;;6211979;23;20440;-76
2022/12/20 22:41:18;;;;;;;50.67;45.97;;;6.50;99.90;;;;;;6212633;23;20749;-75
2022/12/20 22:43:46;;;;;;;50.37;45.90;;;6.50;99.90;;;;;;6212952;23;20723;-74